sensor_id;sensor_type;location;lat;lon;timestamp;P1;durP1;ratioP1;P2;durP2;ratioP2
64295;SDS011;51082;38.236;15.432;2023-10-13T00:00:10;9.50;;;6.05;;
64295;SDS011;51082;38.236;15.432;2023-10-13T00:01:26;8.77;;;6.88;;
64295;SDS011;51082;38.236;15.432;2023-10-13T00:02:28;11.10;;;6.70;;
64295;SDS011;51082;38.236;15.432;2023-10-13T00:03:30;8.20;;;6.18;;
64295;SDS011;51082;38.236;15.432;2023-10-13T00:04:32;10.30;;;6.47;;
64295;SDS011;51082;38.236;15.432;2023-10-13T00:05:37;8.68;;;6.68;;
64295;SDS011;51082;38.236;15.432;2023-10-13T00:06:38;10.82;;;6.40;;
64295;SDS011;51082;38.236;15.432;2023-10-13T00:07:43;8.55;;;6.28;;
64295;SDS011;51082;38.236;15.432;2023-10-13T00:08:45;10.48;;;6.78;;
64295;SDS011;51082;38.236;15.432;2023-10-13T00:09:47;8.98;;;6.53;;
64295;SDS011;51082;38.236;15.432;2023-10-13T00:10:49;8.63;;;6.40;;
64295;SDS011;51082;38.236;15.432;2023-10-13T00:11:51;9.25;;;6.25;;
64295;SDS011;51082;38.236;15.432;2023-10-13T00:12:54;10.25;;;6.28;;
64295;SDS011;51082;38.236;15.432;2023-10-13T00:14:08;8.65;;;6.32;;
64295;SDS011;51082;38.236;15.432;2023-10-13T00:15:10;9.80;;;6.35;;
64295;SDS011;51082;38.236;15.432;2023-10-13T00:16:14;9.10;;;6.28;;
64295;SDS011;51082;38.236;15.432;2023-10-13T00:17:18;10.88;;;6.70;;
64295;SDS011;51082;38.236;15.432;2023-10-13T00:18:25;11.38;;;6.53;;
64295;SDS011;51082;38.236;15.432;2023-10-13T00:19:28;9.73;;;6.65;;
64295;SDS011;51082;38.236;15.432;2023-10-13T00:20:38;11.07;;;6.57;;
64295;SDS011;51082;38.236;15.432;2023-10-13T00:21:40;9.80;;;6.15;;
64295;SDS011;51082;38.236;15.432;2023-10-13T00:22:43;9.18;;;6.07;;
64295;SDS011;51082;38.236;15.432;2023-10-13T00:23:45;9.27;;;5.93;;
64295;SDS011;51082;38.236;15.432;2023-10-13T00:24:54;8.85;;;6.18;;
64295;SDS011;51082;38.236;15.432;2023-10-13T00:25:59;9.68;;;6.28;;
64295;SDS011;51082;38.236;15.432;2023-10-13T00:27:04;9.23;;;6.28;;
64295;SDS011;51082;38.236;15.432;2023-10-13T00:28:05;8.60;;;6.50;;
64295;SDS011;51082;38.236;15.432;2023-10-13T00:29:11;9.63;;;6.75;;
64295;SDS011;51082;38.236;15.432;2023-10-13T00:30:16;10.85;;;6.97;;
64295;SDS011;51082;38.236;15.432;2023-10-13T00:31:22;9.95;;;6.95;;
64295;SDS011;51082;38.236;15.432;2023-10-13T00:32:24;9.15;;;6.68;;
64295;SDS011;51082;38.236;15.432;2023-10-13T00:33:28;10.68;;;6.70;;
64295;SDS011;51082;38.236;15.432;2023-10-13T00:34:32;9.15;;;6.38;;
64295;SDS011;51082;38.236;15.432;2023-10-13T00:35:38;10.60;;;6.28;;
64295;SDS011;51082;38.236;15.432;2023-10-13T00:36:45;9.82;;;6.55;;
64295;SDS011;51082;38.236;15.432;2023-10-13T00:38:09;10.90;;;6.93;;
64295;SDS011;51082;38.236;15.432;2023-10-13T00:39:13;9.23;;;6.45;;
64295;SDS011;51082;38.236;15.432;2023-10-13T00:40:16;10.68;;;6.53;;
64295;SDS011;51082;38.236;15.432;2023-10-13T00:41:39;10.23;;;6.82;;
64295;SDS011;51082;38.236;15.432;2023-10-13T00:42:52;8.23;;;6.53;;
64295;SDS011;51082;38.236;15.432;2023-10-13T00:43:54;10.00;;;6.78;;
64295;SDS011;51082;38.236;15.432;2023-10-13T00:45:07;10.57;;;6.25;;
64295;SDS011;51082;38.236;15.432;2023-10-13T00:46:17;10.10;;;6.55;;
64295;SDS011;51082;38.236;15.432;2023-10-13T00:47:20;9.88;;;6.05;;
64295;SDS011;51082;38.236;15.432;2023-10-13T00:48:40;8.90;;;6.18;;
64295;SDS011;51082;38.236;15.432;2023-10-13T00:49:44;8.90;;;6.15;;
64295;SDS011;51082;38.236;15.432;2023-10-13T00:50:48;8.27;;;6.32;;
64295;SDS011;51082;38.236;15.432;2023-10-13T00:51:50;11.00;;;6.93;;
64295;SDS011;51082;38.236;15.432;2023-10-13T00:52:52;10.50;;;6.85;;
64295;SDS011;51082;38.236;15.432;2023-10-13T00:53:55;10.40;;;6.60;;
64295;SDS011;51082;38.236;15.432;2023-10-13T00:54:57;10.27;;;6.82;;
64295;SDS011;51082;38.236;15.432;2023-10-13T00:56:00;8.77;;;6.20;;
64295;SDS011;51082;38.236;15.432;2023-10-13T00:57:07;12.68;;;6.90;;
64295;SDS011;51082;38.236;15.432;2023-10-13T00:58:25;10.40;;;6.57;;
64295;SDS011;51082;38.236;15.432;2023-10-13T00:59:28;9.00;;;6.53;;
64295;SDS011;51082;38.236;15.432;2023-10-13T01:00:35;11.65;;;6.47;;
64295;SDS011;51082;38.236;15.432;2023-10-13T01:01:47;9.68;;;6.57;;
64295;SDS011;51082;38.236;15.432;2023-10-13T01:02:54;9.20;;;6.45;;
64295;SDS011;51082;38.236;15.432;2023-10-13T01:03:57;10.68;;;6.80;;
64295;SDS011;51082;38.236;15.432;2023-10-13T01:05:00;10.70;;;6.43;;
64295;SDS011;51082;38.236;15.432;2023-10-13T01:06:01;11.77;;;7.47;;
64295;SDS011;51082;38.236;15.432;2023-10-13T01:07:04;11.10;;;7.30;;
64295;SDS011;51082;38.236;15.432;2023-10-13T01:08:08;10.45;;;6.97;;
64295;SDS011;51082;38.236;15.432;2023-10-13T01:09:12;9.98;;;6.65;;
64295;SDS011;51082;38.236;15.432;2023-10-13T01:10:14;10.88;;;7.05;;
64295;SDS011;51082;38.236;15.432;2023-10-13T01:11:17;9.10;;;6.43;;
64295;SDS011;51082;38.236;15.432;2023-10-13T01:12:24;8.88;;;6.45;;
64295;SDS011;51082;38.236;15.432;2023-10-13T01:13:25;10.07;;;6.95;;
64295;SDS011;51082;38.236;15.432;2023-10-13T01:14:27;11.43;;;7.18;;
64295;SDS011;51082;38.236;15.432;2023-10-13T01:15:29;9.70;;;7.30;;
64295;SDS011;51082;38.236;15.432;2023-10-13T01:16:35;12.48;;;7.32;;
64295;SDS011;51082;38.236;15.432;2023-10-13T01:17:40;13.13;;;7.13;;
64295;SDS011;51082;38.236;15.432;2023-10-13T01:18:45;10.70;;;7.05;;
64295;SDS011;51082;38.236;15.432;2023-10-13T01:19:48;11.23;;;7.53;;
64295;SDS011;51082;38.236;15.432;2023-10-13T01:20:51;10.48;;;6.95;;
64295;SDS011;51082;38.236;15.432;2023-10-13T01:21:53;12.18;;;6.97;;
64295;SDS011;51082;38.236;15.432;2023-10-13T01:22:57;10.23;;;7.00;;
64295;SDS011;51082;38.236;15.432;2023-10-13T01:24:00;12.07;;;7.28;;
64295;SDS011;51082;38.236;15.432;2023-10-13T01:25:08;10.43;;;7.00;;
64295;SDS011;51082;38.236;15.432;2023-10-13T01:26:14;8.90;;;6.88;;
64295;SDS011;51082;38.236;15.432;2023-10-13T01:27:22;9.50;;;6.93;;
64295;SDS011;51082;38.236;15.432;2023-10-13T01:28:26;10.05;;;7.00;;
64295;SDS011;51082;38.236;15.432;2023-10-13T01:29:27;10.40;;;6.32;;
64295;SDS011;51082;38.236;15.432;2023-10-13T01:30:29;8.88;;;6.45;;
64295;SDS011;51082;38.236;15.432;2023-10-13T01:31:32;10.45;;;7.28;;
64295;SDS011;51082;38.236;15.432;2023-10-13T01:32:38;9.93;;;6.80;;
64295;SDS011;51082;38.236;15.432;2023-10-13T01:33:41;11.32;;;7.47;;
64295;SDS011;51082;38.236;15.432;2023-10-13T01:34:44;10.25;;;7.50;;
64295;SDS011;51082;38.236;15.432;2023-10-13T01:35:47;12.10;;;7.18;;
64295;SDS011;51082;38.236;15.432;2023-10-13T01:36:49;10.30;;;7.32;;
64295;SDS011;51082;38.236;15.432;2023-10-13T01:37:51;11.57;;;7.47;;
64295;SDS011;51082;38.236;15.432;2023-10-13T01:38:54;10.85;;;6.90;;
64295;SDS011;51082;38.236;15.432;2023-10-13T01:39:57;10.50;;;7.05;;
64295;SDS011;51082;38.236;15.432;2023-10-13T01:40:58;10.50;;;7.57;;
64295;SDS011;51082;38.236;15.432;2023-10-13T01:42:02;10.93;;;7.70;;
64295;SDS011;51082;38.236;15.432;2023-10-13T01:43:03;11.77;;;7.70;;
64295;SDS011;51082;38.236;15.432;2023-10-13T01:44:05;11.20;;;7.63;;
64295;SDS011;51082;38.236;15.432;2023-10-13T01:45:07;12.48;;;7.07;;
64295;SDS011;51082;38.236;15.432;2023-10-13T01:46:10;10.68;;;7.60;;
64295;SDS011;51082;38.236;15.432;2023-10-13T01:47:14;10.85;;;7.65;;
64295;SDS011;51082;38.236;15.432;2023-10-13T01:48:17;10.18;;;7.70;;
64295;SDS011;51082;38.236;15.432;2023-10-13T01:49:22;10.70;;;8.10;;
64295;SDS011;51082;38.236;15.432;2023-10-13T01:50:23;11.93;;;8.05;;
64295;SDS011;51082;38.236;15.432;2023-10-13T01:51:30;10.75;;;7.82;;
64295;SDS011;51082;38.236;15.432;2023-10-13T01:52:32;10.70;;;7.10;;
64295;SDS011;51082;38.236;15.432;2023-10-13T01:53:34;12.13;;;8.25;;
64295;SDS011;51082;38.236;15.432;2023-10-13T01:54:35;9.25;;;7.63;;
64295;SDS011;51082;38.236;15.432;2023-10-13T01:55:42;12.27;;;7.63;;
64295;SDS011;51082;38.236;15.432;2023-10-13T01:56:45;10.70;;;7.97;;
64295;SDS011;51082;38.236;15.432;2023-10-13T01:57:49;11.10;;;8.15;;
64295;SDS011;51082;38.236;15.432;2023-10-13T01:58:50;11.57;;;8.48;;
64295;SDS011;51082;38.236;15.432;2023-10-13T01:59:54;13.43;;;8.10;;
64295;SDS011;51082;38.236;15.432;2023-10-13T02:00:56;10.82;;;8.27;;
64295;SDS011;51082;38.236;15.432;2023-10-13T02:01:57;11.13;;;8.52;;
64295;SDS011;51082;38.236;15.432;2023-10-13T02:03:02;13.50;;;8.70;;
64295;SDS011;51082;38.236;15.432;2023-10-13T02:04:04;11.07;;;8.35;;
64295;SDS011;51082;38.236;15.432;2023-10-13T02:05:07;12.85;;;8.93;;
64295;SDS011;51082;38.236;15.432;2023-10-13T02:06:09;11.05;;;8.10;;
64295;SDS011;51082;38.236;15.432;2023-10-13T02:07:17;14.57;;;8.45;;
64295;SDS011;51082;38.236;15.432;2023-10-13T02:08:21;12.98;;;8.77;;
64295;SDS011;51082;38.236;15.432;2023-10-13T02:09:23;11.63;;;8.20;;
64295;SDS011;51082;38.236;15.432;2023-10-13T02:10:27;12.82;;;8.55;;
64295;SDS011;51082;38.236;15.432;2023-10-13T02:11:32;12.48;;;8.65;;
64295;SDS011;51082;38.236;15.432;2023-10-13T02:12:34;10.90;;;8.68;;
64295;SDS011;51082;38.236;15.432;2023-10-13T02:13:38;12.20;;;9.05;;
64295;SDS011;51082;38.236;15.432;2023-10-13T02:14:49;13.10;;;8.38;;
64295;SDS011;51082;38.236;15.432;2023-10-13T02:15:53;12.30;;;8.23;;
64295;SDS011;51082;38.236;15.432;2023-10-13T02:16:57;12.93;;;8.88;;
64295;SDS011;51082;38.236;15.432;2023-10-13T02:18:13;12.15;;;9.27;;
64295;SDS011;51082;38.236;15.432;2023-10-13T02:19:21;11.82;;;8.73;;
64295;SDS011;51082;38.236;15.432;2023-10-13T02:20:27;13.13;;;8.63;;
64295;SDS011;51082;38.236;15.432;2023-10-13T02:21:34;11.05;;;8.45;;
64295;SDS011;51082;38.236;15.432;2023-10-13T02:22:40;11.60;;;8.90;;
64295;SDS011;51082;38.236;15.432;2023-10-13T02:23:49;11.27;;;8.63;;
64295;SDS011;51082;38.236;15.432;2023-10-13T02:25:01;13.52;;;9.20;;
64295;SDS011;51082;38.236;15.432;2023-10-13T02:26:06;12.73;;;9.10;;
64295;SDS011;51082;38.236;15.432;2023-10-13T02:27:14;14.98;;;9.23;;
64295;SDS011;51082;38.236;15.432;2023-10-13T02:28:16;13.35;;;8.98;;
64295;SDS011;51082;38.236;15.432;2023-10-13T02:29:22;11.00;;;8.65;;
64295;SDS011;51082;38.236;15.432;2023-10-13T02:30:23;11.05;;;8.75;;
64295;SDS011;51082;38.236;15.432;2023-10-13T02:31:30;11.75;;;9.25;;
64295;SDS011;51082;38.236;15.432;2023-10-13T02:32:31;12.25;;;9.10;;
64295;SDS011;51082;38.236;15.432;2023-10-13T02:33:34;11.88;;;9.23;;
64295;SDS011;51082;38.236;15.432;2023-10-13T02:34:45;15.23;;;9.68;;
64295;SDS011;51082;38.236;15.432;2023-10-13T02:35:46;11.05;;;8.95;;
64295;SDS011;51082;38.236;15.432;2023-10-13T02:36:53;11.85;;;9.27;;
64295;SDS011;51082;38.236;15.432;2023-10-13T02:37:56;13.10;;;9.02;;
64295;SDS011;51082;38.236;15.432;2023-10-13T02:38:59;13.10;;;9.57;;
64295;SDS011;51082;38.236;15.432;2023-10-13T02:40:05;16.25;;;9.40;;
64295;SDS011;51082;38.236;15.432;2023-10-13T02:41:11;13.73;;;9.60;;
64295;SDS011;51082;38.236;15.432;2023-10-13T02:42:21;13.13;;;9.68;;
64295;SDS011;51082;38.236;15.432;2023-10-13T02:43:24;11.43;;;9.40;;
64295;SDS011;51082;38.236;15.432;2023-10-13T02:44:25;13.27;;;8.70;;
64295;SDS011;51082;38.236;15.432;2023-10-13T02:45:32;11.90;;;9.30;;
64295;SDS011;51082;38.236;15.432;2023-10-13T02:46:36;13.18;;;9.40;;
64295;SDS011;51082;38.236;15.432;2023-10-13T02:47:40;15.63;;;10.00;;
64295;SDS011;51082;38.236;15.432;2023-10-13T02:48:44;12.27;;;9.35;;
64295;SDS011;51082;38.236;15.432;2023-10-13T02:49:53;11.90;;;8.98;;
64295;SDS011;51082;38.236;15.432;2023-10-13T02:50:55;12.30;;;9.15;;
64295;SDS011;51082;38.236;15.432;2023-10-13T02:51:58;12.02;;;9.13;;
64295;SDS011;51082;38.236;15.432;2023-10-13T02:53:00;13.13;;;9.43;;
64295;SDS011;51082;38.236;15.432;2023-10-13T02:54:04;12.63;;;9.13;;
64295;SDS011;51082;38.236;15.432;2023-10-13T02:55:18;12.90;;;9.20;;
64295;SDS011;51082;38.236;15.432;2023-10-13T02:56:26;13.00;;;9.70;;
64295;SDS011;51082;38.236;15.432;2023-10-13T02:58:35;11.50;;;9.20;;
64295;SDS011;51082;38.236;15.432;2023-10-13T02:59:39;15.85;;;10.00;;
64295;SDS011;51082;38.236;15.432;2023-10-13T03:00:41;14.45;;;9.70;;
64295;SDS011;51082;38.236;15.432;2023-10-13T03:01:44;13.13;;;9.27;;
64295;SDS011;51082;38.236;15.432;2023-10-13T03:02:46;12.80;;;9.23;;
64295;SDS011;51082;38.236;15.432;2023-10-13T03:03:49;12.85;;;9.85;;
64295;SDS011;51082;38.236;15.432;2023-10-13T03:04:55;11.98;;;9.32;;
64295;SDS011;51082;38.236;15.432;2023-10-13T03:06:00;12.25;;;9.63;;
64295;SDS011;51082;38.236;15.432;2023-10-13T03:07:02;13.95;;;10.05;;
64295;SDS011;51082;38.236;15.432;2023-10-13T03:08:04;11.68;;;9.77;;
64295;SDS011;51082;38.236;15.432;2023-10-13T03:09:07;12.57;;;9.68;;
64295;SDS011;51082;38.236;15.432;2023-10-13T03:10:18;13.43;;;9.52;;
64295;SDS011;51082;38.236;15.432;2023-10-13T03:11:20;14.60;;;10.30;;
64295;SDS011;51082;38.236;15.432;2023-10-13T03:12:24;15.00;;;10.00;;
64295;SDS011;51082;38.236;15.432;2023-10-13T03:13:28;10.95;;;8.88;;
64295;SDS011;51082;38.236;15.432;2023-10-13T03:14:29;13.27;;;9.60;;
64295;SDS011;51082;38.236;15.432;2023-10-13T03:15:31;12.20;;;9.50;;
64295;SDS011;51082;38.236;15.432;2023-10-13T03:16:36;15.77;;;9.88;;
64295;SDS011;51082;38.236;15.432;2023-10-13T03:17:37;15.05;;;10.13;;
64295;SDS011;51082;38.236;15.432;2023-10-13T03:18:44;11.43;;;9.10;;
64295;SDS011;51082;38.236;15.432;2023-10-13T03:19:56;14.23;;;9.82;;
64295;SDS011;51082;38.236;15.432;2023-10-13T03:20:58;12.88;;;9.55;;
64295;SDS011;51082;38.236;15.432;2023-10-13T03:22:03;14.45;;;9.50;;
64295;SDS011;51082;38.236;15.432;2023-10-13T03:23:10;12.55;;;9.70;;
64295;SDS011;51082;38.236;15.432;2023-10-13T03:24:11;12.55;;;9.15;;
64295;SDS011;51082;38.236;15.432;2023-10-13T03:25:14;12.00;;;9.65;;
64295;SDS011;51082;38.236;15.432;2023-10-13T03:26:24;15.82;;;9.32;;
64295;SDS011;51082;38.236;15.432;2023-10-13T03:27:26;12.82;;;9.20;;
64295;SDS011;51082;38.236;15.432;2023-10-13T03:28:42;13.07;;;9.98;;
64295;SDS011;51082;38.236;15.432;2023-10-13T03:29:47;13.07;;;9.50;;
64295;SDS011;51082;38.236;15.432;2023-10-13T03:30:54;13.07;;;9.65;;
64295;SDS011;51082;38.236;15.432;2023-10-13T03:32:02;12.73;;;9.43;;
64295;SDS011;51082;38.236;15.432;2023-10-13T03:34:14;12.25;;;9.32;;
64295;SDS011;51082;38.236;15.432;2023-10-13T03:35:20;12.52;;;9.55;;
64295;SDS011;51082;38.236;15.432;2023-10-13T03:36:25;12.90;;;9.27;;
64295;SDS011;51082;38.236;15.432;2023-10-13T03:37:47;13.65;;;9.43;;
64295;SDS011;51082;38.236;15.432;2023-10-13T03:38:49;11.73;;;9.30;;
64295;SDS011;51082;38.236;15.432;2023-10-13T03:39:55;12.07;;;9.30;;
64295;SDS011;51082;38.236;15.432;2023-10-13T03:41:00;13.10;;;10.05;;
64295;SDS011;51082;38.236;15.432;2023-10-13T03:42:08;12.98;;;9.63;;
64295;SDS011;51082;38.236;15.432;2023-10-13T03:43:17;14.27;;;9.63;;
64295;SDS011;51082;38.236;15.432;2023-10-13T03:44:23;12.10;;;9.40;;
64295;SDS011;51082;38.236;15.432;2023-10-13T03:45:31;15.50;;;9.70;;
64295;SDS011;51082;38.236;15.432;2023-10-13T03:46:38;11.10;;;9.23;;
64295;SDS011;51082;38.236;15.432;2023-10-13T03:47:42;13.50;;;9.65;;
64295;SDS011;51082;38.236;15.432;2023-10-13T03:48:46;13.15;;;9.25;;
64295;SDS011;51082;38.236;15.432;2023-10-13T03:49:55;14.40;;;9.65;;
64295;SDS011;51082;38.236;15.432;2023-10-13T03:51:16;12.93;;;9.93;;
64295;SDS011;51082;38.236;15.432;2023-10-13T03:52:19;15.00;;;9.88;;
64295;SDS011;51082;38.236;15.432;2023-10-13T03:53:23;13.43;;;9.65;;
64295;SDS011;51082;38.236;15.432;2023-10-13T03:54:26;15.10;;;9.43;;
64295;SDS011;51082;38.236;15.432;2023-10-13T03:55:31;13.55;;;9.85;;
64295;SDS011;51082;38.236;15.432;2023-10-13T03:56:35;11.70;;;9.18;;
64295;SDS011;51082;38.236;15.432;2023-10-13T03:57:40;13.80;;;9.70;;
64295;SDS011;51082;38.236;15.432;2023-10-13T03:58:42;11.38;;;8.80;;
64295;SDS011;51082;38.236;15.432;2023-10-13T03:59:48;12.88;;;9.50;;
64295;SDS011;51082;38.236;15.432;2023-10-13T04:00:50;13.15;;;8.65;;
64295;SDS011;51082;38.236;15.432;2023-10-13T04:01:52;14.52;;;9.27;;
64295;SDS011;51082;38.236;15.432;2023-10-13T04:03:01;13.10;;;9.13;;
64295;SDS011;51082;38.236;15.432;2023-10-13T04:04:09;13.27;;;9.73;;
64295;SDS011;51082;38.236;15.432;2023-10-13T04:05:12;14.32;;;9.57;;
64295;SDS011;51082;38.236;15.432;2023-10-13T04:06:34;14.20;;;9.27;;
64295;SDS011;51082;38.236;15.432;2023-10-13T04:08:13;12.20;;;8.80;;
64295;SDS011;51082;38.236;15.432;2023-10-13T04:09:33;13.52;;;9.35;;
64295;SDS011;51082;38.236;15.432;2023-10-13T04:10:54;13.32;;;9.45;;
64295;SDS011;51082;38.236;15.432;2023-10-13T04:12:15;13.63;;;9.38;;
64295;SDS011;51082;38.236;15.432;2023-10-13T04:13:50;11.07;;;8.52;;
64295;SDS011;51082;38.236;15.432;2023-10-13T04:15:11;13.48;;;9.27;;
64295;SDS011;51082;38.236;15.432;2023-10-13T04:16:19;13.20;;;9.23;;
64295;SDS011;51082;38.236;15.432;2023-10-13T04:17:35;11.18;;;8.80;;
64295;SDS011;51082;38.236;15.432;2023-10-13T04:18:45;13.48;;;9.07;;
64295;SDS011;51082;38.236;15.432;2023-10-13T04:20:08;14.15;;;9.45;;
64295;SDS011;51082;38.236;15.432;2023-10-13T04:21:28;14.02;;;9.57;;
64295;SDS011;51082;38.236;15.432;2023-10-13T04:22:41;11.88;;;8.80;;
64295;SDS011;51082;38.236;15.432;2023-10-13T04:24:01;12.18;;;9.00;;
64295;SDS011;51082;38.236;15.432;2023-10-13T04:25:20;12.45;;;9.05;;
64295;SDS011;51082;38.236;15.432;2023-10-13T04:26:47;12.13;;;9.02;;
64295;SDS011;51082;38.236;15.432;2023-10-13T04:28:19;12.25;;;9.13;;
64295;SDS011;51082;38.236;15.432;2023-10-13T04:29:35;13.20;;;9.88;;
64295;SDS011;51082;38.236;15.432;2023-10-13T04:30:51;13.18;;;9.40;;
64295;SDS011;51082;38.236;15.432;2023-10-13T04:33:01;13.38;;;9.20;;
64295;SDS011;51082;38.236;15.432;2023-10-13T04:34:30;11.55;;;8.65;;
64295;SDS011;51082;38.236;15.432;2023-10-13T04:35:39;13.88;;;9.57;;
64295;SDS011;51082;38.236;15.432;2023-10-13T04:36:48;13.90;;;9.23;;
64295;SDS011;51082;38.236;15.432;2023-10-13T04:37:57;11.25;;;8.90;;
64295;SDS011;51082;38.236;15.432;2023-10-13T04:39:01;12.63;;;9.15;;
64295;SDS011;51082;38.236;15.432;2023-10-13T04:40:10;11.65;;;8.85;;
64295;SDS011;51082;38.236;15.432;2023-10-13T04:41:12;11.90;;;8.55;;
64295;SDS011;51082;38.236;15.432;2023-10-13T04:42:23;11.85;;;8.65;;
64295;SDS011;51082;38.236;15.432;2023-10-13T04:43:40;13.90;;;8.77;;
64295;SDS011;51082;38.236;15.432;2023-10-13T04:44:56;13.48;;;9.20;;
64295;SDS011;51082;38.236;15.432;2023-10-13T04:46:05;13.05;;;8.70;;
64295;SDS011;51082;38.236;15.432;2023-10-13T04:47:25;12.20;;;8.93;;
64295;SDS011;51082;38.236;15.432;2023-10-13T04:48:30;14.57;;;9.07;;
64295;SDS011;51082;38.236;15.432;2023-10-13T04:49:39;11.82;;;9.07;;
64295;SDS011;51082;38.236;15.432;2023-10-13T04:50:51;13.98;;;9.15;;
64295;SDS011;51082;38.236;15.432;2023-10-13T04:51:58;13.68;;;8.95;;
64295;SDS011;51082;38.236;15.432;2023-10-13T04:53:13;10.73;;;8.40;;
64295;SDS011;51082;38.236;15.432;2023-10-13T04:54:28;12.68;;;8.90;;
64295;SDS011;51082;38.236;15.432;2023-10-13T04:55:34;13.93;;;8.90;;
64295;SDS011;51082;38.236;15.432;2023-10-13T04:56:53;14.20;;;8.98;;
64295;SDS011;51082;38.236;15.432;2023-10-13T04:58:21;14.18;;;8.70;;
64295;SDS011;51082;38.236;15.432;2023-10-13T04:59:46;11.02;;;8.68;;
64295;SDS011;51082;38.236;15.432;2023-10-13T05:01:07;10.98;;;8.55;;
64295;SDS011;51082;38.236;15.432;2023-10-13T05:02:40;13.02;;;8.75;;
64295;SDS011;51082;38.236;15.432;2023-10-13T05:03:58;14.30;;;9.25;;
64295;SDS011;51082;38.236;15.432;2023-10-13T05:05:22;12.57;;;8.90;;
64295;SDS011;51082;38.236;15.432;2023-10-13T05:06:39;13.00;;;8.48;;
64295;SDS011;51082;38.236;15.432;2023-10-13T05:08:01;12.85;;;8.30;;
64295;SDS011;51082;38.236;15.432;2023-10-13T05:09:21;13.50;;;8.95;;
64295;SDS011;51082;38.236;15.432;2023-10-13T05:10:37;12.70;;;8.80;;
64295;SDS011;51082;38.236;15.432;2023-10-13T05:11:57;12.43;;;8.70;;
64295;SDS011;51082;38.236;15.432;2023-10-13T05:13:17;13.65;;;8.63;;
64295;SDS011;51082;38.236;15.432;2023-10-13T05:14:37;15.10;;;9.02;;
64295;SDS011;51082;38.236;15.432;2023-10-13T05:15:57;12.63;;;8.77;;
64295;SDS011;51082;38.236;15.432;2023-10-13T05:17:18;13.80;;;9.40;;
64295;SDS011;51082;38.236;15.432;2023-10-13T05:18:38;12.90;;;8.70;;
64295;SDS011;51082;38.236;15.432;2023-10-13T05:19:57;14.32;;;9.43;;
64295;SDS011;51082;38.236;15.432;2023-10-13T05:21:14;12.48;;;8.90;;
64295;SDS011;51082;38.236;15.432;2023-10-13T05:22:33;12.00;;;8.55;;
64295;SDS011;51082;38.236;15.432;2023-10-13T05:23:53;14.45;;;8.75;;
64295;SDS011;51082;38.236;15.432;2023-10-13T05:25:13;13.50;;;9.02;;
64295;SDS011;51082;38.236;15.432;2023-10-13T05:26:33;13.57;;;8.82;;
64295;SDS011;51082;38.236;15.432;2023-10-13T05:27:53;12.43;;;8.30;;
64295;SDS011;51082;38.236;15.432;2023-10-13T05:29:13;13.60;;;8.57;;
64295;SDS011;51082;38.236;15.432;2023-10-13T05:30:33;14.38;;;9.10;;
64295;SDS011;51082;38.236;15.432;2023-10-13T05:31:53;13.25;;;9.13;;
64295;SDS011;51082;38.236;15.432;2023-10-13T05:33:14;13.80;;;9.20;;
64295;SDS011;51082;38.236;15.432;2023-10-13T05:34:33;13.00;;;8.88;;
64295;SDS011;51082;38.236;15.432;2023-10-13T05:35:53;13.23;;;8.75;;
64295;SDS011;51082;38.236;15.432;2023-10-13T05:37:13;12.82;;;8.52;;
64295;SDS011;51082;38.236;15.432;2023-10-13T05:38:33;12.43;;;8.85;;
64295;SDS011;51082;38.236;15.432;2023-10-13T05:39:52;12.68;;;8.80;;
64295;SDS011;51082;38.236;15.432;2023-10-13T05:41:12;12.70;;;8.93;;
64295;SDS011;51082;38.236;15.432;2023-10-13T05:42:32;12.98;;;9.23;;
64295;SDS011;51082;38.236;15.432;2023-10-13T05:43:52;12.65;;;8.82;;
64295;SDS011;51082;38.236;15.432;2023-10-13T05:45:12;13.38;;;9.45;;
64295;SDS011;51082;38.236;15.432;2023-10-13T05:46:58;12.80;;;9.18;;
64295;SDS011;51082;38.236;15.432;2023-10-13T05:48:35;12.60;;;8.80;;
64295;SDS011;51082;38.236;15.432;2023-10-13T05:50:03;11.13;;;8.38;;
64295;SDS011;51082;38.236;15.432;2023-10-13T05:51:14;14.00;;;9.20;;
64295;SDS011;51082;38.236;15.432;2023-10-13T05:52:33;15.05;;;9.25;;
64295;SDS011;51082;38.236;15.432;2023-10-13T05:54:08;14.85;;;9.30;;
64295;SDS011;51082;38.236;15.432;2023-10-13T05:55:36;11.02;;;8.43;;
64295;SDS011;51082;38.236;15.432;2023-10-13T05:56:52;12.15;;;8.65;;
64295;SDS011;51082;38.236;15.432;2023-10-13T05:58:12;12.43;;;8.50;;
64295;SDS011;51082;38.236;15.432;2023-10-13T05:59:32;13.70;;;9.20;;
64295;SDS011;51082;38.236;15.432;2023-10-13T06:00:54;12.13;;;8.55;;
64295;SDS011;51082;38.236;15.432;2023-10-13T06:03:36;11.77;;;8.88;;
64295;SDS011;51082;38.236;15.432;2023-10-13T06:04:55;12.70;;;8.90;;
64295;SDS011;51082;38.236;15.432;2023-10-13T06:06:15;11.70;;;8.32;;
64295;SDS011;51082;38.236;15.432;2023-10-13T06:07:35;14.23;;;8.70;;
64295;SDS011;51082;38.236;15.432;2023-10-13T06:08:55;11.30;;;8.25;;
64295;SDS011;51082;38.236;15.432;2023-10-13T06:10:15;12.50;;;9.05;;
64295;SDS011;51082;38.236;15.432;2023-10-13T06:11:35;11.20;;;9.02;;
64295;SDS011;51082;38.236;15.432;2023-10-13T06:12:54;12.27;;;8.73;;
64295;SDS011;51082;38.236;15.432;2023-10-13T06:14:14;13.30;;;8.98;;
64295;SDS011;51082;38.236;15.432;2023-10-13T06:15:35;12.20;;;9.25;;
64295;SDS011;51082;38.236;15.432;2023-10-13T06:16:55;11.13;;;8.57;;
64295;SDS011;51082;38.236;15.432;2023-10-13T06:18:15;13.57;;;9.02;;
64295;SDS011;51082;38.236;15.432;2023-10-13T06:19:36;13.13;;;9.55;;
64295;SDS011;51082;38.236;15.432;2023-10-13T06:20:56;12.50;;;8.77;;
64295;SDS011;51082;38.236;15.432;2023-10-13T06:22:16;13.13;;;9.18;;
64295;SDS011;51082;38.236;15.432;2023-10-13T06:23:35;11.75;;;9.00;;
64295;SDS011;51082;38.236;15.432;2023-10-13T06:24:55;12.23;;;8.93;;
64295;SDS011;51082;38.236;15.432;2023-10-13T06:26:15;12.43;;;8.88;;
64295;SDS011;51082;38.236;15.432;2023-10-13T06:27:35;12.20;;;8.88;;
64295;SDS011;51082;38.236;15.432;2023-10-13T06:28:55;13.32;;;8.45;;
64295;SDS011;51082;38.236;15.432;2023-10-13T06:29:58;14.98;;;9.23;;
64295;SDS011;51082;38.236;15.432;2023-10-13T06:31:01;14.75;;;9.88;;
64295;SDS011;51082;38.236;15.432;2023-10-13T06:32:06;12.65;;;9.30;;
64295;SDS011;51082;38.236;15.432;2023-10-13T06:33:12;13.23;;;8.85;;
64295;SDS011;51082;38.236;15.432;2023-10-13T06:34:15;12.68;;;9.65;;
64295;SDS011;51082;38.236;15.432;2023-10-13T06:35:22;12.85;;;9.95;;
64295;SDS011;51082;38.236;15.432;2023-10-13T06:36:25;12.82;;;9.18;;
64295;SDS011;51082;38.236;15.432;2023-10-13T06:37:27;12.23;;;9.07;;
64295;SDS011;51082;38.236;15.432;2023-10-13T06:38:33;14.70;;;9.60;;
64295;SDS011;51082;38.236;15.432;2023-10-13T06:39:36;11.77;;;9.50;;
64295;SDS011;51082;38.236;15.432;2023-10-13T06:40:44;13.10;;;9.85;;
64295;SDS011;51082;38.236;15.432;2023-10-13T06:41:49;13.10;;;9.80;;
64295;SDS011;51082;38.236;15.432;2023-10-13T06:42:53;12.43;;;9.77;;
64295;SDS011;51082;38.236;15.432;2023-10-13T06:43:56;12.85;;;9.30;;
64295;SDS011;51082;38.236;15.432;2023-10-13T06:45:01;13.30;;;9.35;;
64295;SDS011;51082;38.236;15.432;2023-10-13T06:46:09;12.73;;;9.52;;
64295;SDS011;51082;38.236;15.432;2023-10-13T06:47:15;15.27;;;10.13;;
64295;SDS011;51082;38.236;15.432;2023-10-13T06:48:17;14.57;;;10.27;;
64295;SDS011;51082;38.236;15.432;2023-10-13T06:49:19;14.40;;;10.07;;
64295;SDS011;51082;38.236;15.432;2023-10-13T06:50:22;12.07;;;9.38;;